sensor_id;sensor_type;location;lat;lon;timestamp;P1;durP1;ratioP1;P2;durP2;ratioP2
18013;SDS011;9132;47.946;10.394;2022-08-04T00:00:26;2.20;;;2.00;;
18013;SDS011;9132;47.946;10.394;2022-08-04T00:02:58;2.40;;;2.20;;
18013;SDS011;9132;47.946;10.394;2022-08-04T00:05:32;2.78;;;1.98;;
18013;SDS011;9132;47.946;10.394;2022-08-04T00:08:04;2.40;;;2.20;;
18013;SDS011;9132;47.946;10.394;2022-08-04T00:10:32;2.70;;;2.20;;
18013;SDS011;9132;47.946;10.394;2022-08-04T00:12:59;2.00;;;1.90;;
18013;SDS011;9132;47.946;10.394;2022-08-04T00:15:27;2.22;;;2.10;;
18013;SDS011;9132;47.946;10.394;2022-08-04T00:17:55;3.55;;;2.17;;
18013;SDS011;9132;47.946;10.394;2022-08-04T00:20:22;3.08;;;2.15;;
18013;SDS011;9132;47.946;10.394;2022-08-04T00:22:49;3.53;;;2.05;;
18013;SDS011;9132;47.946;10.394;2022-08-04T00:25:17;2.33;;;2.13;;
18013;SDS011;9132;47.946;10.394;2022-08-04T00:27:45;3.92;;;2.45;;
18013;SDS011;9132;47.946;10.394;2022-08-04T00:30:12;3.13;;;2.13;;
18013;SDS011;9132;47.946;10.394;2022-08-04T00:32:38;4.90;;;2.20;;
18013;SDS011;9132;47.946;10.394;2022-08-04T00:35:05;4.53;;;2.40;;
18013;SDS011;9132;47.946;10.394;2022-08-04T00:37:33;3.95;;;2.38;;
18013;SDS011;9132;47.946;10.394;2022-08-04T00:40:00;1.80;;;1.70;;
18013;SDS011;9132;47.946;10.394;2022-08-04T00:42:36;3.53;;;2.33;;
18013;SDS011;9132;47.946;10.394;2022-08-04T00:45:21;2.20;;;2.00;;
18013;SDS011;9132;47.946;10.394;2022-08-04T00:47:56;3.15;;;2.35;;
18013;SDS011;9132;47.946;10.394;2022-08-04T00:50:28;2.58;;;2.28;;
18013;SDS011;9132;47.946;10.394;2022-08-04T00:53:05;2.78;;;2.10;;
18013;SDS011;9132;47.946;10.394;2022-08-04T00:58:34;3.05;;;2.17;;
18013;SDS011;9132;47.946;10.394;2022-08-04T01:01:06;2.30;;;2.10;;
18013;SDS011;9132;47.946;10.394;2022-08-04T01:03:46;4.13;;;2.30;;
18013;SDS011;9132;47.946;10.394;2022-08-04T01:06:16;2.20;;;2.00;;
18013;SDS011;9132;47.946;10.394;2022-08-04T01:08:44;3.92;;;2.15;;
18013;SDS011;9132;47.946;10.394;2022-08-04T01:11:17;2.42;;;2.22;;
18013;SDS011;9132;47.946;10.394;2022-08-04T01:13:54;3.13;;;2.42;;
18013;SDS011;9132;47.946;10.394;2022-08-04T01:16:23;2.65;;;2.20;;
18013;SDS011;9132;47.946;10.394;2022-08-04T01:18:51;2.72;;;2.08;;
18013;SDS011;9132;47.946;10.394;2022-08-04T01:21:27;2.55;;;2.35;;
18013;SDS011;9132;47.946;10.394;2022-08-04T01:24:12;3.40;;;2.22;;
18013;SDS011;9132;47.946;10.394;2022-08-04T01:26:54;3.75;;;2.80;;
18013;SDS011;9132;47.946;10.394;2022-08-04T01:29:24;2.65;;;2.40;;
18013;SDS011;9132;47.946;10.394;2022-08-04T01:31:57;3.38;;;2.38;;
18013;SDS011;9132;47.946;10.394;2022-08-04T01:34:26;2.85;;;2.55;;
18013;SDS011;9132;47.946;10.394;2022-08-04T01:36:56;2.67;;;2.47;;
18013;SDS011;9132;47.946;10.394;2022-08-04T01:39:23;4.32;;;2.20;;
18013;SDS011;9132;47.946;10.394;2022-08-04T01:42:06;2.50;;;2.30;;
18013;SDS011;9132;47.946;10.394;2022-08-04T01:44:35;3.10;;;2.80;;
18013;SDS011;9132;47.946;10.394;2022-08-04T01:47:02;4.72;;;2.72;;
18013;SDS011;9132;47.946;10.394;2022-08-04T01:49:29;4.13;;;3.10;;
18013;SDS011;9132;47.946;10.394;2022-08-04T01:51:56;4.07;;;2.80;;
18013;SDS011;9132;47.946;10.394;2022-08-04T01:54:23;3.30;;;3.00;;
18013;SDS011;9132;47.946;10.394;2022-08-04T01:56:50;2.97;;;2.50;;
18013;SDS011;9132;47.946;10.394;2022-08-04T01:59:17;3.28;;;2.92;;
18013;SDS011;9132;47.946;10.394;2022-08-04T02:01:45;4.65;;;2.80;;
18013;SDS011;9132;47.946;10.394;2022-08-04T02:04:12;2.83;;;2.40;;
18013;SDS011;9132;47.946;10.394;2022-08-04T02:06:39;2.83;;;2.63;;
18013;SDS011;9132;47.946;10.394;2022-08-04T02:09:10;4.05;;;3.00;;
18013;SDS011;9132;47.946;10.394;2022-08-04T02:11:37;3.03;;;2.83;;
18013;SDS011;9132;47.946;10.394;2022-08-04T02:14:08;3.15;;;2.60;;
18013;SDS011;9132;47.946;10.394;2022-08-04T02:16:39;5.20;;;3.00;;
18013;SDS011;9132;47.946;10.394;2022-08-04T02:19:11;3.28;;;2.97;;
18013;SDS011;9132;47.946;10.394;2022-08-04T02:21:43;3.78;;;2.92;;
18013;SDS011;9132;47.946;10.394;2022-08-04T02:24:11;5.05;;;3.30;;
18013;SDS011;9132;47.946;10.394;2022-08-04T02:26:40;2.92;;;2.72;;
18013;SDS011;9132;47.946;10.394;2022-08-04T02:29:09;4.25;;;2.88;;
18013;SDS011;9132;47.946;10.394;2022-08-04T02:31:38;3.42;;;2.83;;
18013;SDS011;9132;47.946;10.394;2022-08-04T02:34:08;3.85;;;2.88;;
18013;SDS011;9132;47.946;10.394;2022-08-04T02:36:40;3.97;;;2.95;;
18013;SDS011;9132;47.946;10.394;2022-08-04T02:39:07;3.92;;;2.90;;
18013;SDS011;9132;47.946;10.394;2022-08-04T02:41:33;3.13;;;2.83;;
18013;SDS011;9132;47.946;10.394;2022-08-04T02:44:01;3.13;;;2.72;;
18013;SDS011;9132;47.946;10.394;2022-08-04T02:46:28;3.90;;;2.78;;
18013;SDS011;9132;47.946;10.394;2022-08-04T02:48:54;3.10;;;2.80;;
18013;SDS011;9132;47.946;10.394;2022-08-04T02:51:22;3.50;;;3.20;;
18013;SDS011;9132;47.946;10.394;2022-08-04T02:53:51;3.53;;;3.22;;
18013;SDS011;9132;47.946;10.394;2022-08-04T02:56:18;3.08;;;2.45;;
18013;SDS011;9132;47.946;10.394;2022-08-04T02:58:45;6.22;;;3.10;;
18013;SDS011;9132;47.946;10.394;2022-08-04T03:01:14;3.85;;;3.10;;
18013;SDS011;9132;47.946;10.394;2022-08-04T03:03:43;3.85;;;3.20;;
18013;SDS011;9132;47.946;10.394;2022-08-04T03:09:03;4.03;;;2.78;;
18013;SDS011;9132;47.946;10.394;2022-08-04T03:11:42;3.95;;;3.10;;
18013;SDS011;9132;47.946;10.394;2022-08-04T03:14:28;3.55;;;3.13;;
18013;SDS011;9132;47.946;10.394;2022-08-04T03:17:13;4.13;;;2.88;;
18013;SDS011;9132;47.946;10.394;2022-08-04T03:20:10;2.97;;;2.78;;
18013;SDS011;9132;47.946;10.394;2022-08-04T03:22:51;3.13;;;2.83;;
18013;SDS011;9132;47.946;10.394;2022-08-04T03:25:37;4.00;;;2.85;;
18013;SDS011;9132;47.946;10.394;2022-08-04T03:30:50;3.22;;;2.60;;
18013;SDS011;9132;47.946;10.394;2022-08-04T03:33:30;3.00;;;2.80;;
18013;SDS011;9132;47.946;10.394;2022-08-04T03:36:08;3.40;;;3.05;;
18013;SDS011;9132;47.946;10.394;2022-08-04T03:41:29;4.63;;;3.17;;
18013;SDS011;9132;47.946;10.394;2022-08-04T03:44:07;5.15;;;3.42;;
18013;SDS011;9132;47.946;10.394;2022-08-04T03:46:40;4.10;;;3.25;;
18013;SDS011;9132;47.946;10.394;2022-08-04T03:51:55;4.65;;;3.17;;
18013;SDS011;9132;47.946;10.394;2022-08-04T03:57:32;3.50;;;3.20;;
18013;SDS011;9132;47.946;10.394;2022-08-04T04:00:05;3.47;;;3.17;;
18013;SDS011;9132;47.946;10.394;2022-08-04T04:02:43;3.03;;;2.83;;
18013;SDS011;9132;47.946;10.394;2022-08-04T04:05:35;4.13;;;3.17;;
18013;SDS011;9132;47.946;10.394;2022-08-04T04:08:20;4.70;;;3.13;;
18013;SDS011;9132;47.946;10.394;2022-08-04T04:11:09;3.65;;;3.08;;
18013;SDS011;9132;47.946;10.394;2022-08-04T04:13:52;3.40;;;3.10;;
18013;SDS011;9132;47.946;10.394;2022-08-04T04:16:37;3.40;;;3.10;;
18013;SDS011;9132;47.946;10.394;2022-08-04T04:19:17;3.65;;;3.30;;
18013;SDS011;9132;47.946;10.394;2022-08-04T04:21:57;3.97;;;3.00;;
18013;SDS011;9132;47.946;10.394;2022-08-04T04:24:32;3.60;;;3.30;;
18013;SDS011;9132;47.946;10.394;2022-08-04T04:27:00;3.22;;;3.03;;
18013;SDS011;9132;47.946;10.394;2022-08-04T04:32:23;3.60;;;3.30;;
18013;SDS011;9132;47.946;10.394;2022-08-04T04:34:57;4.72;;;3.20;;
18013;SDS011;9132;47.946;10.394;2022-08-04T04:37:32;5.47;;;3.40;;
18013;SDS011;9132;47.946;10.394;2022-08-04T04:40:09;3.65;;;3.35;;
18013;SDS011;9132;47.946;10.394;2022-08-04T04:42:46;4.28;;;2.75;;
18013;SDS011;9132;47.946;10.394;2022-08-04T04:45:18;4.20;;;3.28;;
18013;SDS011;9132;47.946;10.394;2022-08-04T04:47:53;4.70;;;3.08;;
18013;SDS011;9132;47.946;10.394;2022-08-04T04:50:22;3.80;;;2.83;;
18013;SDS011;9132;47.946;10.394;2022-08-04T04:52:52;6.30;;;3.20;;
18013;SDS011;9132;47.946;10.394;2022-08-04T04:55:20;3.75;;;3.45;;
18013;SDS011;9132;47.946;10.394;2022-08-04T04:57:49;5.47;;;3.00;;
18013;SDS011;9132;47.946;10.394;2022-08-04T05:00:16;4.07;;;3.13;;
18013;SDS011;9132;47.946;10.394;2022-08-04T05:02:56;4.15;;;3.00;;
18013;SDS011;9132;47.946;10.394;2022-08-04T05:05:26;3.53;;;3.17;;
18013;SDS011;9132;47.946;10.394;2022-08-04T05:08:05;3.40;;;3.20;;
18013;SDS011;9132;47.946;10.394;2022-08-04T05:10:38;3.53;;;2.72;;
18013;SDS011;9132;47.946;10.394;2022-08-04T05:13:25;3.70;;;3.00;;
18013;SDS011;9132;47.946;10.394;2022-08-04T05:15:59;3.92;;;3.30;;
18013;SDS011;9132;47.946;10.394;2022-08-04T05:18:29;3.95;;;3.25;;
18013;SDS011;9132;47.946;10.394;2022-08-04T05:21:06;4.30;;;2.97;;
18013;SDS011;9132;47.946;10.394;2022-08-04T05:23:35;3.88;;;3.40;;
18013;SDS011;9132;47.946;10.394;2022-08-04T05:26:05;4.05;;;2.90;;
18013;SDS011;9132;47.946;10.394;2022-08-04T05:28:33;2.90;;;2.70;;
18013;SDS011;9132;47.946;10.394;2022-08-04T05:31:03;3.22;;;2.92;;
18013;SDS011;9132;47.946;10.394;2022-08-04T05:33:33;3.05;;;2.85;;
18013;SDS011;9132;47.946;10.394;2022-08-04T05:36:02;2.88;;;2.55;;
18013;SDS011;9132;47.946;10.394;2022-08-04T05:38:33;3.25;;;2.95;;
18013;SDS011;9132;47.946;10.394;2022-08-04T05:40:59;3.17;;;2.90;;
18013;SDS011;9132;47.946;10.394;2022-08-04T05:43:26;3.00;;;2.80;;
18013;SDS011;9132;47.946;10.394;2022-08-04T05:45:52;3.38;;;2.72;;
18013;SDS011;9132;47.946;10.394;2022-08-04T05:48:21;3.22;;;2.50;;
18013;SDS011;9132;47.946;10.394;2022-08-04T05:50:49;3.80;;;3.22;;
18013;SDS011;9132;47.946;10.394;2022-08-04T05:53:16;4.63;;;2.80;;
18013;SDS011;9132;47.946;10.394;2022-08-04T05:55:44;3.40;;;3.00;;
18013;SDS011;9132;47.946;10.394;2022-08-04T05:58:11;3.45;;;3.15;;
18013;SDS011;9132;47.946;10.394;2022-08-04T06:00:38;2.88;;;2.67;;
18013;SDS011;9132;47.946;10.394;2022-08-04T06:03:06;3.30;;;3.00;;
18013;SDS011;9132;47.946;10.394;2022-08-04T06:05:34;3.10;;;2.90;;
18013;SDS011;9132;47.946;10.394;2022-08-04T06:08:03;3.20;;;2.90;;
18013;SDS011;9132;47.946;10.394;2022-08-04T06:10:30;3.03;;;2.70;;
18013;SDS011;9132;47.946;10.394;2022-08-04T06:12:59;3.85;;;2.50;;
18013;SDS011;9132;47.946;10.394;2022-08-04T06:15:26;3.38;;;2.88;;
18013;SDS011;9132;47.946;10.394;2022-08-04T06:17:54;2.70;;;2.50;;
18013;SDS011;9132;47.946;10.394;2022-08-04T06:20:22;2.72;;;2.53;;
18013;SDS011;9132;47.946;10.394;2022-08-04T06:22:53;3.15;;;2.67;;
18013;SDS011;9132;47.946;10.394;2022-08-04T06:25:22;3.38;;;3.08;;
18013;SDS011;9132;47.946;10.394;2022-08-04T06:27:49;2.92;;;2.72;;
18013;SDS011;9132;47.946;10.394;2022-08-04T06:30:16;2.80;;;2.60;;
18013;SDS011;9132;47.946;10.394;2022-08-04T06:32:44;2.88;;;2.67;;
18013;SDS011;9132;47.946;10.394;2022-08-04T06:35:20;2.65;;;2.40;;
18013;SDS011;9132;47.946;10.394;2022-08-04T06:37:47;3.08;;;2.78;;
18013;SDS011;9132;47.946;10.394;2022-08-04T06:40:14;2.80;;;2.60;;
18013;SDS011;9132;47.946;10.394;2022-08-04T06:42:42;3.15;;;2.85;;
18013;SDS011;9132;47.946;10.394;2022-08-04T06:45:09;5.45;;;3.00;;
18013;SDS011;9132;47.946;10.394;2022-08-04T06:47:36;4.00;;;2.80;;
18013;SDS011;9132;47.946;10.394;2022-08-04T06:50:03;3.40;;;2.60;;
18013;SDS011;9132;47.946;10.394;2022-08-04T06:52:30;2.83;;;2.63;;
18013;SDS011;9132;47.946;10.394;2022-08-04T06:54:56;2.90;;;2.70;;
18013;SDS011;9132;47.946;10.394;2022-08-04T06:57:23;4.05;;;2.97;;
18013;SDS011;9132;47.946;10.394;2022-08-04T06:59:55;3.25;;;2.97;;
18013;SDS011;9132;47.946;10.394;2022-08-04T07:02:23;3.78;;;2.75;;
18013;SDS011;9132;47.946;10.394;2022-08-04T07:04:50;4.13;;;2.70;;
18013;SDS011;9132;47.946;10.394;2022-08-04T07:07:17;3.22;;;2.92;;
18013;SDS011;9132;47.946;10.394;2022-08-04T07:09:43;3.85;;;2.90;;
18013;SDS011;9132;47.946;10.394;2022-08-04T07:12:10;4.82;;;2.80;;
18013;SDS011;9132;47.946;10.394;2022-08-04T07:14:37;3.65;;;2.80;;
18013;SDS011;9132;47.946;10.394;2022-08-04T07:17:05;3.55;;;2.42;;
18013;SDS011;9132;47.946;10.394;2022-08-04T07:19:33;3.90;;;2.72;;
18013;SDS011;9132;47.946;10.394;2022-08-04T07:21:59;3.63;;;2.85;;
18013;SDS011;9132;47.946;10.394;2022-08-04T07:24:29;4.97;;;2.72;;
18013;SDS011;9132;47.946;10.394;2022-08-04T07:26:55;4.25;;;3.15;;
18013;SDS011;9132;47.946;10.394;2022-08-04T07:29:22;2.92;;;2.70;;
18013;SDS011;9132;47.946;10.394;2022-08-04T07:31:48;3.53;;;2.78;;
18013;SDS011;9132;47.946;10.394;2022-08-04T07:34:16;3.95;;;3.30;;
18013;SDS011;9132;47.946;10.394;2022-08-04T07:36:44;2.80;;;2.58;;
18013;SDS011;9132;47.946;10.394;2022-08-04T07:39:10;3.10;;;2.85;;
18013;SDS011;9132;47.946;10.394;2022-08-04T07:41:37;3.38;;;2.70;;
18013;SDS011;9132;47.946;10.394;2022-08-04T07:44:03;2.88;;;2.60;;
18013;SDS011;9132;47.946;10.394;2022-08-04T07:46:30;3.47;;;3.08;;
18013;SDS011;9132;47.946;10.394;2022-08-04T07:48:56;3.70;;;2.60;;
18013;SDS011;9132;47.946;10.394;2022-08-04T07:51:24;3.72;;;2.38;;
18013;SDS011;9132;47.946;10.394;2022-08-04T07:53:51;2.55;;;2.35;;
18013;SDS011;9132;47.946;10.394;2022-08-04T07:56:18;3.25;;;2.30;;
18013;SDS011;9132;47.946;10.394;2022-08-04T07:58:44;2.40;;;2.20;;
18013;SDS011;9132;47.946;10.394;2022-08-04T08:01:11;3.72;;;2.70;;
18013;SDS011;9132;47.946;10.394;2022-08-04T08:03:38;2.70;;;2.50;;
18013;SDS011;9132;47.946;10.394;2022-08-04T08:06:05;3.25;;;2.95;;
18013;SDS011;9132;47.946;10.394;2022-08-04T08:08:33;2.72;;;2.50;;
18013;SDS011;9132;47.946;10.394;2022-08-04T08:11:02;3.15;;;2.38;;
18013;SDS011;9132;47.946;10.394;2022-08-04T08:13:28;2.42;;;2.22;;
18013;SDS011;9132;47.946;10.394;2022-08-04T08:15:55;2.58;;;2.38;;
18013;SDS011;9132;47.946;10.394;2022-08-04T08:18:22;6.65;;;2.53;;
18013;SDS011;9132;47.946;10.394;2022-08-04T08:20:49;4.10;;;2.60;;
18013;SDS011;9132;47.946;10.394;2022-08-04T08:23:17;3.80;;;2.38;;
18013;SDS011;9132;47.946;10.394;2022-08-04T08:25:45;2.90;;;2.25;;
18013;SDS011;9132;47.946;10.394;2022-08-04T08:28:11;2.90;;;2.45;;
18013;SDS011;9132;47.946;10.394;2022-08-04T08:30:37;3.40;;;2.60;;
18013;SDS011;9132;47.946;10.394;2022-08-04T08:33:06;2.10;;;2.00;;
18013;SDS011;9132;47.946;10.394;2022-08-04T08:35:45;4.03;;;2.40;;
18013;SDS011;9132;47.946;10.394;2022-08-04T08:38:12;2.35;;;2.15;;
18013;SDS011;9132;47.946;10.394;2022-08-04T08:40:42;2.97;;;2.33;;
18013;SDS011;9132;47.946;10.394;2022-08-04T08:45:57;2.65;;;2.38;;
18013;SDS011;9132;47.946;10.394;2022-08-04T08:53:58;2.83;;;2.60;;
18013;SDS011;9132;47.946;10.394;2022-08-04T08:56:32;4.68;;;2.45;;
18013;SDS011;9132;47.946;10.394;2022-08-04T08:59:02;2.90;;;2.60;;
18013;SDS011;9132;47.946;10.394;2022-08-04T09:01:39;3.28;;;2.40;;
18013;SDS011;9132;47.946;10.394;2022-08-04T09:04:18;3.15;;;2.28;;
18013;SDS011;9132;47.946;10.394;2022-08-04T09:06:59;2.53;;;2.30;;
18013;SDS011;9132;47.946;10.394;2022-08-04T09:12:13;2.70;;;2.50;;
18013;SDS011;9132;47.946;10.394;2022-08-04T09:14:42;2.50;;;2.30;;
18013;SDS011;9132;47.946;10.394;2022-08-04T09:17:17;3.35;;;2.60;;
18013;SDS011;9132;47.946;10.394;2022-08-04T09:19:44;2.25;;;2.15;;
18013;SDS011;9132;47.946;10.394;2022-08-04T09:22:15;3.40;;;2.50;;
18013;SDS011;9132;47.946;10.394;2022-08-04T09:24:46;3.17;;;2.30;;
18013;SDS011;9132;47.946;10.394;2022-08-04T09:27:14;4.50;;;2.28;;
18013;SDS011;9132;47.946;10.394;2022-08-04T09:29:42;2.25;;;2.15;;
18013;SDS011;9132;47.946;10.394;2022-08-04T09:32:16;2.42;;;2.20;;
18013;SDS011;9132;47.946;10.394;2022-08-04T09:34:46;3.47;;;2.45;;
18013;SDS011;9132;47.946;10.394;2022-08-04T09:37:20;3.75;;;2.33;;
18013;SDS011;9132;47.946;10.394;2022-08-04T09:39:52;2.35;;;2.25;;
18013;SDS011;9132;47.946;10.394;2022-08-04T09:42:22;2.58;;;2.38;;
18013;SDS011;9132;47.946;10.394;2022-08-04T09:44:56;2.78;;;2.50;;
18013;SDS011;9132;47.946;10.394;2022-08-04T09:47:28;2.40;;;2.20;;
18013;SDS011;9132;47.946;10.394;2022-08-04T09:49:57;2.20;;;2.00;;
18013;SDS011;9132;47.946;10.394;2022-08-04T09:52:29;2.60;;;2.28;;
18013;SDS011;9132;47.946;10.394;2022-08-04T09:55:00;2.17;;;2.03;;
18013;SDS011;9132;47.946;10.394;2022-08-04T09:57:27;3.65;;;2.25;;
18013;SDS011;9132;47.946;10.394;2022-08-04T10:00:03;2.92;;;2.50;;
18013;SDS011;9132;47.946;10.394;2022-08-04T10:02:32;3.80;;;2.60;;
18013;SDS011;9132;47.946;10.394;2022-08-04T10:04:59;3.58;;;2.40;;
18013;SDS011;9132;47.946;10.394;2022-08-04T10:07:39;3.17;;;2.28;;
18013;SDS011;9132;47.946;10.394;2022-08-04T10:10:13;2.60;;;2.40;;
18013;SDS011;9132;47.946;10.394;2022-08-04T10:12:42;2.67;;;2.47;;
18013;SDS011;9132;47.946;10.394;2022-08-04T10:15:14;3.28;;;2.50;;
18013;SDS011;9132;47.946;10.394;2022-08-04T10:17:44;2.80;;;2.60;;
18013;SDS011;9132;47.946;10.394;2022-08-04T10:20:18;2.60;;;2.40;;
18013;SDS011;9132;47.946;10.394;2022-08-04T10:22:52;2.65;;;2.45;;
18013;SDS011;9132;47.946;10.394;2022-08-04T10:25:24;2.50;;;2.30;;
18013;SDS011;9132;47.946;10.394;2022-08-04T10:27:54;2.78;;;2.20;;
18013;SDS011;9132;47.946;10.394;2022-08-04T10:30:22;4.00;;;2.45;;
18013;SDS011;9132;47.946;10.394;2022-08-04T10:32:52;2.80;;;2.60;;
18013;SDS011;9132;47.946;10.394;2022-08-04T10:35:21;2.95;;;2.70;;
18013;SDS011;9132;47.946;10.394;2022-08-04T10:37:49;2.33;;;2.10;;
18013;SDS011;9132;47.946;10.394;2022-08-04T10:40:19;2.40;;;2.30;;
18013;SDS011;9132;47.946;10.394;2022-08-04T10:43:05;3.30;;;2.47;;
18013;SDS011;9132;47.946;10.394;2022-08-04T10:45:37;2.75;;;2.33;;
18013;SDS011;9132;47.946;10.394;2022-08-04T10:50:52;3.28;;;2.30;;
18013;SDS011;9132;47.946;10.394;2022-08-04T10:53:24;2.55;;;2.35;;
18013;SDS011;9132;47.946;10.394;2022-08-04T10:56:01;3.95;;;2.22;;
18013;SDS011;9132;47.946;10.394;2022-08-04T10:58:29;2.63;;;2.42;;
18013;SDS011;9132;47.946;10.394;2022-08-04T11:00:59;3.33;;;2.33;;
18013;SDS011;9132;47.946;10.394;2022-08-04T11:03:33;3.58;;;2.50;;
18013;SDS011;9132;47.946;10.394;2022-08-04T11:06:00;2.88;;;2.20;;
18013;SDS011;9132;47.946;10.394;2022-08-04T11:08:28;2.50;;;2.30;;
18013;SDS011;9132;47.946;10.394;2022-08-04T11:10:59;2.90;;;2.40;;
18013;SDS011;9132;47.946;10.394;2022-08-04T11:13:28;2.92;;;2.60;;
18013;SDS011;9132;47.946;10.394;2022-08-04T11:15:58;4.25;;;2.17;;
18013;SDS011;9132;47.946;10.394;2022-08-04T11:18:34;3.78;;;2.25;;
18013;SDS011;9132;47.946;10.394;2022-08-04T11:21:03;2.58;;;2.38;;
18013;SDS011;9132;47.946;10.394;2022-08-04T11:23:34;3.05;;;2.30;;
18013;SDS011;9132;47.946;10.394;2022-08-04T11:26:04;3.08;;;2.03;;
18013;SDS011;9132;47.946;10.394;2022-08-04T11:28:34;3.17;;;2.60;;
18013;SDS011;9132;47.946;10.394;2022-08-04T11:31:02;2.70;;;2.40;;
18013;SDS011;9132;47.946;10.394;2022-08-04T11:33:30;2.85;;;2.22;;
18013;SDS011;9132;47.946;10.394;2022-08-04T11:36:01;3.38;;;2.38;;
18013;SDS011;9132;47.946;10.394;2022-08-04T11:38:30;4.63;;;2.40;;
18013;SDS011;9132;47.946;10.394;2022-08-04T11:40:59;2.85;;;2.40;;
18013;SDS011;9132;47.946;10.394;2022-08-04T11:43:32;2.58;;;2.38;;
18013;SDS011;9132;47.946;10.394;2022-08-04T11:46:01;2.20;;;2.10;;
18013;SDS011;9132;47.946;10.394;2022-08-04T11:48:29;2.88;;;2.67;;
18013;SDS011;9132;47.946;10.394;2022-08-04T11:50:58;4.13;;;2.40;;
18013;SDS011;9132;47.946;10.394;2022-08-04T11:53:26;2.55;;;2.25;;
18013;SDS011;9132;47.946;10.394;2022-08-04T11:55:57;2.28;;;2.17;;
18013;SDS011;9132;47.946;10.394;2022-08-04T11:58:24;3.08;;;2.50;;
18013;SDS011;9132;47.946;10.394;2022-08-04T12:00:52;3.78;;;2.30;;
18013;SDS011;9132;47.946;10.394;2022-08-04T12:03:23;2.40;;;2.20;;
18013;SDS011;9132;47.946;10.394;2022-08-04T12:05:54;2.28;;;2.17;;
18013;SDS011;9132;47.946;10.394;2022-08-04T12:08:31;4.15;;;2.47;;
18013;SDS011;9132;47.946;10.394;2022-08-04T12:11:04;2.35;;;2.15;;
18013;SDS011;9132;47.946;10.394;2022-08-04T12:13:35;5.40;;;2.20;;
18013;SDS011;9132;47.946;10.394;2022-08-04T12:16:14;2.67;;;2.00;;
18013;SDS011;9132;47.946;10.394;2022-08-04T12:18:42;2.30;;;2.10;;
18013;SDS011;9132;47.946;10.394;2022-08-04T12:21:11;3.97;;;2.00;;
18013;SDS011;9132;47.946;10.394;2022-08-04T12:23:40;3.42;;;1.85;;
18013;SDS011;9132;47.946;10.394;2022-08-04T12:26:09;2.20;;;1.85;;
18013;SDS011;9132;47.946;10.394;2022-08-04T12:28:39;2.22;;;1.73;;
18013;SDS011;9132;47.946;10.394;2022-08-04T12:31:08;2.33;;;2.13;;
18013;SDS011;9132;47.946;10.394;2022-08-04T12:33:39;2.50;;;2.05;;
18013;SDS011;9132;47.946;10.394;2022-08-04T12:36:11;2.40;;;1.77;;
18013;SDS011;9132;47.946;10.394;2022-08-04T12:38:40;1.75;;;1.58;;
18013;SDS011;9132;47.946;10.394;2022-08-04T12:41:10;2.00;;;1.90;;
18013;SDS011;9132;47.946;10.394;2022-08-04T12:43:40;3.55;;;1.52;;
18013;SDS011;9132;47.946;10.394;2022-08-04T12:46:08;3.35;;;1.70;;
18013;SDS011;9132;47.946;10.394;2022-08-04T12:48:36;1.60;;;1.50;;
18013;SDS011;9132;47.946;10.394;2022-08-04T12:51:03;4.20;;;1.10;;
18013;SDS011;9132;47.946;10.394;2022-08-04T12:53:31;3.38;;;1.15;;
18013;SDS011;9132;47.946;10.394;2022-08-04T12:55:58;3.85;;;1.40;;
18013;SDS011;9132;47.946;10.394;2022-08-04T12:58:27;1.75;;;1.20;;
18013;SDS011;9132;47.946;10.394;2022-08-04T13:00:55;1.73;;;1.40;;
18013;SDS011;9132;47.946;10.394;2022-08-04T13:03:23;2.97;;;1.40;;
18013;SDS011;9132;47.946;10.394;2022-08-04T13:05:52;2.53;;;1.48;;
18013;SDS011;9132;47.946;10.394;2022-08-04T13:08:19;1.60;;;1.50;;
18013;SDS011;9132;47.946;10.394;2022-08-04T13:10:48;3.65;;;1.40;;
18013;SDS011;9132;47.946;10.394;2022-08-04T13:13:16;2.47;;;1.50;;
18013;SDS011;9132;47.946;10.394;2022-08-04T13:15:44;3.17;;;1.52;;
18013;SDS011;9132;47.946;10.394;2022-08-04T13:18:19;1.58;;;1.42;;
18013;SDS011;9132;47.946;10.394;2022-08-04T13:20:46;5.25;;;1.70;;
18013;SDS011;9132;47.946;10.394;2022-08-04T13:23:14;1.52;;;1.42;;
18013;SDS011;9132;47.946;10.394;2022-08-04T13:25:41;2.97;;;1.65;;
18013;SDS011;9132;47.946;10.394;2022-08-04T13:28:11;1.58;;;1.48;;
18013;SDS011;9132;47.946;10.394;2022-08-04T13:30:38;1.77;;;1.67;;
18013;SDS011;9132;47.946;10.394;2022-08-04T13:33:06;2.00;;;1.50;;
18013;SDS011;9132;47.946;10.394;2022-08-04T13:35:32;3.25;;;1.58;;
18013;SDS011;9132;47.946;10.394;2022-08-04T13:37:59;1.35;;;1.25;;
18013;SDS011;9132;47.946;10.394;2022-08-04T13:40:26;1.65;;;1.35;;
18013;SDS011;9132;47.946;10.394;2022-08-04T13:42:53;2.08;;;1.30;;
18013;SDS011;9132;47.946;10.394;2022-08-04T13:45:21;4.10;;;1.27;;
18013;SDS011;9132;47.946;10.394;2022-08-04T13:47:49;1.48;;;1.27;;
18013;SDS011;9132;47.946;10.394;2022-08-04T13:50:18;1.20;;;1.10;;
18013;SDS011;9132;47.946;10.394;2022-08-04T13:52:47;1.10;;;1.00;;
18013;SDS011;9132;47.946;10.394;2022-08-04T13:55:20;1.77;;;1.30;;
18013;SDS011;9132;47.946;10.394;2022-08-04T13:57:49;1.95;;;1.10;;
18013;SDS011;9132;47.946;10.394;2022-08-04T14:00:16;2.92;;;1.38;;
18013;SDS011;9132;47.946;10.394;2022-08-04T14:02:45;0.95;;;0.95;;
18013;SDS011;9132;47.946;10.394;2022-08-04T14:05:13;2.90;;;1.17;;
18013;SDS011;9132;47.946;10.394;2022-08-04T14:07:45;1.40;;;1.23;;
18013;SDS011;9132;47.946;10.394;2022-08-04T14:10:12;3.25;;;1.17;;
18013;SDS011;9132;47.946;10.394;2022-08-04T14:12:42;1.65;;;1.05;;
18013;SDS011;9132;47.946;10.394;2022-08-04T14:15:09;2.25;;;1.20;;
18013;SDS011;9132;47.946;10.394;2022-08-04T14:17:54;3.38;;;1.27;;
18013;SDS011;9132;47.946;10.394;2022-08-04T14:20:41;2.80;;;1.10;;
18013;SDS011;9132;47.946;10.394;2022-08-04T14:23:23;1.60;;;1.30;;
18013;SDS011;9132;47.946;10.394;2022-08-04T14:25:50;1.10;;;1.00;;
18013;SDS011;9132;47.946;10.394;2022-08-04T14:28:25;3.05;;;1.17;;
18013;SDS011;9132;47.946;10.394;2022-08-04T14:30:52;2.50;;;1.17;;
18013;SDS011;9132;47.946;10.394;2022-08-04T14:33:35;3.15;;;1.08;;
18013;SDS011;9132;47.946;10.394;2022-08-04T14:36:02;2.33;;;1.20;;
18013;SDS011;9132;47.946;10.394;2022-08-04T14:38:41;1.58;;;1.20;;
18013;SDS011;9132;47.946;10.394;2022-08-04T14:41:08;3.05;;;1.30;;
18013;SDS011;9132;47.946;10.394;2022-08-04T14:43:39;1.17;;;1.10;;
18013;SDS011;9132;47.946;10.394;2022-08-04T14:46:06;3.55;;;1.40;;
18013;SDS011;9132;47.946;10.394;2022-08-04T14:48:33;2.47;;;1.10;;
18013;SDS011;9132;47.946;10.394;2022-08-04T14:50:59;1.55;;;1.10;;
18013;SDS011;9132;47.946;10.394;2022-08-04T14:53:25;1.08;;;0.98;;
18013;SDS011;9132;47.946;10.394;2022-08-04T14:55:55;2.15;;;1.13;;
18013;SDS011;9132;47.946;10.394;2022-08-04T14:58:22;2.22;;;1.27;;
18013;SDS011;9132;47.946;10.394;2022-08-04T15:00:49;2.50;;;1.00;;
18013;SDS011;9132;47.946;10.394;2022-08-04T15:03:17;0.98;;;0.98;;
18013;SDS011;9132;47.946;10.394;2022-08-04T15:05:44;1.10;;;1.08;;
18013;SDS011;9132;47.946;10.394;2022-08-04T15:08:13;3.38;;;1.27;;
18013;SDS011;9132;47.946;10.394;2022-08-04T15:10:39;3.38;;;1.00;;
18013;SDS011;9132;47.946;10.394;2022-08-04T15:13:08;2.45;;;1.20;;
18013;SDS011;9132;47.946;10.394;2022-08-04T15:15:37;3.60;;;1.50;;
18013;SDS011;9132;47.946;10.394;2022-08-04T15:18:05;2.15;;;1.20;;
18013;SDS011;9132;47.946;10.394;2022-08-04T15:20:32;1.65;;;1.10;;
18013;SDS011;9132;47.946;10.394;2022-08-04T15:23:00;1.95;;;1.20;;
18013;SDS011;9132;47.946;10.394;2022-08-04T15:25:26;2.20;;;1.10;;
18013;SDS011;9132;47.946;10.394;2022-08-04T15:27:52;1.40;;;1.13;;
18013;SDS011;9132;47.946;10.394;2022-08-04T15:30:21;1.63;;;1.20;;
18013;SDS011;9132;47.946;10.394;2022-08-04T15:32:49;1.42;;;1.33;;
18013;SDS011;9132;47.946;10.394;2022-08-04T15:35:17;3.15;;;1.30;;
18013;SDS011;9132;47.946;10.394;2022-08-04T15:37:45;2.25;;;1.48;;
18013;SDS011;9132;47.946;10.394;2022-08-04T15:40:15;1.70;;;1.20;;